createdAt,value
2023-05-22T00:00:26.823Z,53.77
2023-05-22T00:02:54.359Z,55.25
2023-05-22T00:05:21.801Z,55.83
2023-05-22T00:07:49.283Z,55.95
2023-05-22T00:10:16.524Z,56.46
2023-05-22T00:12:43.723Z,56.74
2023-05-22T00:15:11.806Z,57.18
2023-05-22T00:17:39.613Z,56.98
2023-05-22T00:20:08.928Z,55.25
2023-05-22T00:22:36.664Z,54.49
2023-05-22T00:25:04.611Z,54.53
2023-05-22T00:27:33.249Z,54.97
2023-05-22T00:30:00.363Z,55.25
2023-05-22T00:32:27.724Z,55.98
2023-05-22T00:34:55.380Z,55.32
2023-05-22T00:37:22.402Z,56.10
2023-05-22T00:39:49.710Z,55.66
2023-05-22T00:42:17.044Z,56.78
2023-05-22T00:44:44.264Z,56.17
2023-05-22T00:47:11.661Z,57.32
2023-05-22T00:49:39.868Z,57.64
2023-05-22T00:52:07.175Z,56.07
2023-05-22T00:54:34.182Z,54.80
2023-05-22T00:57:01.612Z,54.70
2023-05-22T00:59:29.304Z,55.55
2023-05-22T01:01:57.418Z,55.68
2023-05-22T01:04:24.976Z,56.26
2023-05-22T01:06:53.985Z,56.45
2023-05-22T01:09:21.017Z,56.69
2023-05-22T01:12:07.373Z,57.39
2023-05-22T01:15:13.606Z,57.59
2023-05-22T01:17:48.049Z,58.20
2023-05-22T01:20:33.704Z,57.69
2023-05-22T01:23:28.986Z,55.68
2023-05-22T01:26:34.739Z,55.08
2023-05-22T01:29:42.291Z,54.18
2023-05-22T01:32:11.139Z,55.53
2023-05-22T01:34:38.611Z,55.33
2023-05-22T01:37:05.633Z,55.59
2023-05-22T01:39:32.656Z,56.41
2023-05-22T01:41:59.708Z,56.44
2023-05-22T01:44:27.083Z,57.29
2023-05-22T01:46:56.437Z,57.56
2023-05-22T01:49:23.840Z,58.64
2023-05-22T01:51:53.653Z,58.56
2023-05-22T01:54:37.651Z,57.01
2023-05-22T01:57:25.016Z,56.25
2023-05-22T02:00:09.947Z,56.25
2023-05-22T02:02:47.994Z,56.58
2023-05-22T02:05:18.843Z,57.02
2023-05-22T02:07:46.345Z,57.34
2023-05-22T02:10:13.393Z,57.86
2023-05-22T02:12:40.587Z,57.81
2023-05-22T02:15:08.742Z,58.72
2023-05-22T02:17:42.689Z,58.77
2023-05-22T02:20:14.450Z,56.75
2023-05-22T02:22:47.388Z,56.82
2023-05-22T02:25:14.858Z,56.86
2023-05-22T02:27:43.089Z,57.37
2023-05-22T02:30:12.008Z,57.63
2023-05-22T02:32:40.570Z,58.08
2023-05-22T02:35:09.745Z,58.72
2023-05-22T02:37:37.220Z,58.99
2023-05-22T02:40:07.437Z,59.33
2023-05-22T02:42:35.934Z,59.26
2023-05-22T02:45:03.250Z,57.89
2023-05-22T02:47:30.907Z,57.25
2023-05-22T02:49:58.427Z,57.26
2023-05-22T02:52:25.463Z,57.91
2023-05-22T02:54:52.602Z,57.99
2023-05-22T02:57:20.038Z,58.49
2023-05-22T02:59:47.133Z,58.75
2023-05-22T03:02:15.554Z,59.45
2023-05-22T03:04:42.837Z,59.37
2023-05-22T03:07:10.183Z,57.71
2023-05-22T03:09:37.406Z,56.13
2023-05-22T03:12:07.838Z,56.45
2023-05-22T03:14:35.316Z,56.97
2023-05-22T03:17:02.641Z,56.54
2023-05-22T03:19:30.285Z,57.31
2023-05-22T03:21:58.254Z,57.74
2023-05-22T03:24:26.269Z,57.98
2023-05-22T03:26:53.342Z,58.16
2023-05-22T03:29:26.660Z,58.52
2023-05-22T03:31:54.566Z,58.15
2023-05-22T03:34:27.574Z,56.72
2023-05-22T03:36:55.064Z,56.25
2023-05-22T03:39:22.107Z,55.94
2023-05-22T03:41:54.885Z,55.86
2023-05-22T03:44:24.497Z,55.96
2023-05-22T03:46:52.065Z,56.56
2023-05-22T03:49:19.122Z,56.69
2023-05-22T03:51:46.160Z,56.87
2023-05-22T03:54:13.325Z,56.73
2023-05-22T03:56:41.944Z,56.68
2023-05-22T03:59:08.958Z,56.68
2023-05-22T04:01:39.485Z,56.99
2023-05-22T04:04:06.772Z,56.46
2023-05-22T04:06:34.310Z,54.90
2023-05-22T04:09:01.995Z,54.38
2023-05-22T04:11:32.339Z,54.03
2023-05-22T04:14:03.314Z,54.29
2023-05-22T04:16:30.652Z,54.26
2023-05-22T04:18:58.175Z,54.65
2023-05-22T04:21:25.353Z,54.88
2023-05-22T04:23:52.463Z,55.84
2023-05-22T04:26:20.840Z,55.59
2023-05-22T04:28:48.008Z,55.15
2023-05-22T04:31:15.242Z,54.51
2023-05-22T04:33:42.911Z,53.29
2023-05-22T04:36:12.470Z,54.65
2023-05-22T04:38:41.477Z,53.83
2023-05-22T04:41:13.573Z,53.60
2023-05-22T04:43:40.859Z,53.36
2023-05-22T04:46:09.057Z,53.54
2023-05-22T04:48:37.015Z,53.05
2023-05-22T04:51:04.804Z,52.56
2023-05-22T04:53:33.530Z,52.22
2023-05-22T04:56:00.913Z,52.02
2023-05-22T04:58:28.434Z,51.72
2023-05-22T05:00:58.380Z,51.92
2023-05-22T05:03:28.949Z,50.57
2023-05-22T05:05:56.928Z,50.01
2023-05-22T05:08:23.958Z,50.15
2023-05-22T05:10:51.049Z,49.60
2023-05-22T05:13:18.220Z,48.66
2023-05-22T05:15:46.016Z,47.74
2023-05-22T05:18:13.620Z,47.10
2023-05-22T05:20:42.969Z,45.42
2023-05-22T05:23:10.513Z,45.27
2023-05-22T05:25:38.832Z,44.42
2023-05-22T05:28:10.857Z,43.50
2023-05-22T05:30:39.633Z,43.23
2023-05-22T05:33:29.991Z,43.20
2023-05-22T05:36:02.816Z,42.82
2023-05-22T05:38:30.554Z,43.08
2023-05-22T05:40:57.661Z,42.98
2023-05-22T05:43:25.634Z,41.92
2023-05-22T05:45:55.459Z,41.70
2023-05-22T05:48:23.013Z,42.39
2023-05-22T05:50:50.134Z,42.12
2023-05-22T05:53:17.408Z,41.70
2023-05-22T05:55:49.532Z,40.47
2023-05-22T05:58:17.774Z,40.70
2023-05-22T06:01:13.114Z,40.28
2023-05-22T06:03:40.423Z,40.34
2023-05-22T06:06:17.771Z,38.73
2023-05-22T06:09:08.393Z,38.11
2023-05-22T06:11:46.901Z,38.62
2023-05-22T06:14:14.328Z,38.64
2023-05-22T06:16:41.741Z,37.24
2023-05-22T06:19:09.099Z,36.73
2023-05-22T06:21:37.206Z,35.82
2023-05-22T06:24:04.509Z,33.37
2023-05-22T06:26:31.886Z,32.61
2023-05-22T06:28:58.856Z,30.77
2023-05-22T06:31:26.204Z,32.15
2023-05-22T06:33:55.429Z,31.47
2023-05-22T06:36:23.493Z,31.66
2023-05-22T06:38:55.141Z,30.97
2023-05-22T06:41:42.172Z,30.78
2023-05-22T06:44:10.443Z,28.84
2023-05-22T06:46:38.895Z,29.07
2023-05-22T06:49:06.617Z,29.20
2023-05-22T06:51:43.947Z,29.95
2023-05-22T06:54:13.874Z,27.30
2023-05-22T06:56:43.457Z,27.36
2023-05-22T06:59:15.278Z,28.44
2023-05-22T07:02:02.557Z,26.37
2023-05-22T07:04:50.031Z,26.36
2023-05-22T07:07:21.871Z,24.98
2023-05-22T07:09:49.665Z,26.52
2023-05-22T07:12:17.848Z,27.74
2023-05-22T07:14:45.400Z,26.72
2023-05-22T07:17:12.924Z,26.01
2023-05-22T07:19:43.036Z,25.79
2023-05-22T07:22:10.096Z,25.01
2023-05-22T07:24:38.564Z,23.92
2023-05-22T07:27:06.011Z,24.90
2023-05-22T07:29:33.566Z,24.69
2023-05-22T07:32:01.166Z,26.27
2023-05-22T07:34:33.184Z,25.28
2023-05-22T07:37:06.815Z,26.43
2023-05-22T07:39:34.595Z,24.75
2023-05-22T07:42:02.069Z,25.79
2023-05-22T07:44:29.807Z,24.17
2023-05-22T07:46:57.016Z,24.32
2023-05-22T07:49:25.770Z,21.84
2023-05-22T07:51:52.942Z,21.95
2023-05-22T07:54:21.000Z,21.28
2023-05-22T07:56:50.474Z,23.69
2023-05-22T07:59:19.892Z,23.83
2023-05-22T08:01:47.119Z,23.57
2023-05-22T08:04:14.429Z,23.34
2023-05-22T08:06:43.927Z,22.57
2023-05-22T08:09:11.007Z,22.78
2023-05-22T08:11:40.254Z,22.30
2023-05-22T08:14:07.856Z,23.01
2023-05-22T08:16:35.446Z,21.85
2023-05-22T08:19:02.761Z,22.81
2023-05-22T08:21:33.224Z,24.22
2023-05-22T08:24:01.280Z,24.36
2023-05-22T08:26:30.132Z,24.06
2023-05-22T08:28:59.639Z,23.35
2023-05-22T08:31:29.336Z,22.27
2023-05-22T08:34:02.497Z,21.15
2023-05-22T08:36:31.603Z,21.02
2023-05-22T08:38:58.638Z,22.01
2023-05-22T08:41:25.666Z,21.21
2023-05-22T08:43:53.213Z,20.85
2023-05-22T08:46:20.235Z,21.41
2023-05-22T08:48:47.932Z,20.77
2023-05-22T08:51:15.533Z,21.61
2023-05-22T08:53:43.013Z,22.58
2023-05-22T08:56:10.045Z,22.36
2023-05-22T08:58:37.729Z,23.88
2023-05-22T09:01:05.582Z,22.58
2023-05-22T09:03:33.412Z,22.39
2023-05-22T09:06:04.276Z,20.91
2023-05-22T09:08:33.382Z,22.17
2023-05-22T09:11:00.520Z,22.94
2023-05-22T09:13:31.535Z,23.79
2023-05-22T09:16:00.806Z,21.41
2023-05-22T09:18:28.996Z,22.24
2023-05-22T09:20:59.351Z,21.85
2023-05-22T13:43:28.499Z,25.73
2023-05-22T13:45:55.829Z,24.23
2023-05-22T13:48:23.421Z,24.67
2023-05-22T13:50:50.565Z,26.11
2023-05-22T13:53:18.495Z,23.71
2023-05-22T13:55:45.578Z,23.89
2023-05-22T13:58:12.667Z,23.45
2023-05-22T14:00:39.880Z,24.52
2023-05-22T14:03:07.129Z,24.89
2023-05-22T14:05:34.542Z,25.78
2023-05-22T14:08:01.753Z,26.65
2023-05-22T14:10:29.416Z,26.07
2023-05-22T14:12:56.604Z,26.30
2023-05-22T14:15:24.331Z,25.75
2023-05-22T14:17:51.439Z,25.66
2023-05-22T14:20:18.685Z,25.70
2023-05-22T14:22:57.210Z,24.44
2023-05-22T14:25:26.309Z,24.64
2023-05-22T14:27:53.650Z,24.49
2023-05-22T14:30:20.817Z,24.16
2023-05-22T14:32:48.899Z,25.17
2023-05-22T14:35:16.827Z,25.19
2023-05-22T14:37:44.097Z,24.95
2023-05-22T14:40:11.316Z,25.84
2023-05-22T14:42:39.019Z,23.96
2023-05-22T14:45:06.520Z,24.35
2023-05-22T14:47:34.263Z,23.78
2023-05-22T14:50:14.675Z,24.12
2023-05-22T14:52:46.518Z,24.06
2023-05-22T14:55:13.593Z,25.24
2023-05-22T14:57:40.532Z,25.61
2023-05-22T15:00:09.894Z,25.76
2023-05-22T15:02:39.281Z,25.55
2023-05-22T15:05:07.364Z,25.72
2023-05-22T15:07:43.912Z,24.87
2023-05-22T15:10:13.066Z,24.83
2023-05-22T15:12:40.968Z,25.30
2023-05-22T15:15:08.795Z,24.57
2023-05-22T15:17:36.324Z,24.33
2023-05-22T15:20:05.491Z,23.42
2023-05-22T15:22:33.355Z,24.21
2023-05-22T15:25:18.676Z,24.36
2023-05-22T15:27:45.929Z,24.11
2023-05-22T15:30:13.215Z,24.46
2023-05-22T15:32:40.671Z,24.45
2023-05-22T15:35:10.226Z,24.22
2023-05-22T15:37:38.188Z,23.70
2023-05-22T15:40:06.247Z,24.50
2023-05-22T15:42:33.772Z,23.38
2023-05-22T15:45:01.207Z,24.10
2023-05-22T15:47:29.241Z,24.73
2023-05-22T15:49:56.271Z,24.42
2023-05-22T15:52:24.654Z,23.99
2023-05-22T15:54:56.991Z,23.91
2023-05-22T15:57:26.392Z,24.42
2023-05-22T15:59:53.348Z,24.43
2023-05-22T16:02:20.299Z,23.80
2023-05-22T16:04:47.387Z,24.24
2023-05-22T16:07:14.625Z,24.08
2023-05-22T16:09:43.405Z,24.42
2023-05-22T16:12:12.998Z,24.50
2023-05-22T16:14:41.849Z,24.54
2023-05-22T16:17:08.961Z,24.01
2023-05-22T16:19:36.201Z,24.69
2023-05-22T16:22:03.862Z,25.52
2023-05-22T16:24:31.096Z,25.54
2023-05-22T16:26:59.280Z,25.81
2023-05-22T16:29:26.234Z,25.74
2023-05-22T16:31:53.322Z,25.89
2023-05-22T16:34:20.621Z,25.54
2023-05-22T16:36:47.666Z,25.26
2023-05-22T16:39:15.642Z,26.09
2023-05-22T16:41:42.744Z,26.72
2023-05-22T16:44:09.877Z,26.48
2023-05-22T16:46:36.916Z,26.31
2023-05-22T16:49:04.162Z,26.99
2023-05-22T16:51:31.443Z,26.52
2023-05-22T16:53:58.627Z,26.84
2023-05-22T16:56:26.127Z,27.21
2023-05-22T16:58:53.422Z,27.33
2023-05-22T17:01:22.072Z,27.52
2023-05-22T17:03:49.725Z,28.23
2023-05-22T17:06:19.454Z,28.25
2023-05-22T17:08:48.007Z,28.48
2023-05-22T17:11:14.972Z,28.27
2023-05-22T17:13:42.640Z,28.76
2023-05-22T17:16:09.808Z,29.13
2023-05-22T17:18:37.999Z,29.24
2023-05-22T17:21:05.273Z,29.51
2023-05-22T17:23:37.023Z,29.71
2023-05-22T17:26:04.587Z,30.58
2023-05-22T17:28:32.095Z,30.77
2023-05-22T17:30:59.457Z,31.07
2023-05-22T17:33:26.871Z,31.49
2023-05-22T17:35:54.867Z,31.30
2023-05-22T17:38:22.102Z,31.71
2023-05-22T17:40:49.548Z,31.73
2023-05-22T17:43:19.033Z,31.58
2023-05-22T17:45:55.210Z,32.23
2023-05-22T17:48:27.276Z,32.23
2023-05-22T17:50:54.835Z,32.49
2023-05-22T17:53:21.983Z,33.61
2023-05-22T17:55:49.998Z,34.32
2023-05-22T17:58:17.270Z,34.54
2023-05-22T18:00:45.761Z,34.29
2023-05-22T18:03:13.412Z,34.54
2023-05-22T18:05:41.403Z,35.37
2023-05-22T18:08:08.822Z,35.91
2023-05-22T18:10:38.378Z,36.45
2023-05-22T18:13:06.099Z,37.62
2023-05-22T18:15:33.493Z,37.97
2023-05-22T18:18:00.811Z,38.19
2023-05-22T18:20:29.302Z,38.48
2023-05-22T18:22:56.681Z,39.35
2023-05-22T18:25:23.837Z,40.35
2023-05-22T18:27:50.846Z,40.71
2023-05-22T18:30:18.068Z,41.66
2023-05-22T18:32:46.214Z,41.73
2023-05-22T18:35:13.393Z,42.17
2023-05-22T18:37:40.717Z,42.80
2023-05-22T18:40:09.579Z,42.30
2023-05-22T18:42:39.156Z,43.07
2023-05-22T18:45:08.968Z,43.47
2023-05-22T18:47:38.215Z,43.67
2023-05-22T18:50:05.960Z,43.51
2023-05-22T18:52:33.491Z,43.79
2023-05-22T18:55:00.571Z,44.60
2023-05-22T18:57:27.591Z,45.02
2023-05-22T18:59:55.901Z,45.41
2023-05-22T19:02:23.109Z,45.88
2023-05-22T19:04:50.641Z,45.78
2023-05-22T19:07:17.761Z,46.38
2023-05-22T19:09:44.888Z,46.53
2023-05-22T19:12:11.956Z,46.56
2023-05-22T19:14:39.983Z,46.92
2023-05-22T19:17:07.249Z,47.06
2023-05-22T19:19:34.474Z,47.63
2023-05-22T19:22:01.570Z,48.03
2023-05-22T19:24:28.989Z,48.57
2023-05-22T19:26:56.098Z,48.76
2023-05-22T19:29:23.544Z,48.35
2023-05-22T19:31:50.667Z,49.09
2023-05-22T19:34:17.715Z,49.05
2023-05-22T19:36:44.859Z,49.02
2023-05-22T19:39:12.162Z,49.24
2023-05-22T19:41:39.267Z,49.53
2023-05-22T19:44:07.130Z,49.45
2023-05-22T19:46:34.815Z,49.69
2023-05-22T19:49:04.913Z,50.59
2023-05-22T19:51:32.485Z,50.42
2023-05-22T19:53:59.805Z,50.71
2023-05-22T19:56:27.250Z,50.34
2023-05-22T19:58:54.310Z,50.77
2023-05-22T20:01:21.593Z,50.90
2023-05-22T20:03:49.886Z,50.45
2023-05-22T20:06:19.093Z,50.59
2023-05-22T20:08:46.382Z,50.55
2023-05-22T20:11:13.541Z,50.36
2023-05-22T20:13:40.811Z,51.07
2023-05-22T20:16:11.997Z,51.54
2023-05-22T20:18:41.090Z,52.08
2023-05-22T20:21:09.814Z,52.32
2023-05-22T20:23:37.316Z,52.20
2023-05-22T20:26:05.586Z,52.44
2023-05-22T20:28:32.659Z,52.94
2023-05-22T20:30:59.706Z,53.03
2023-05-22T20:33:27.883Z,53.26
2023-05-22T20:35:54.982Z,53.20
2023-05-22T20:38:22.628Z,53.42
2023-05-22T20:40:50.077Z,53.68
2023-05-22T20:43:18.660Z,53.76
2023-05-22T20:45:46.813Z,53.91
2023-05-22T20:48:15.082Z,54.04
2023-05-22T20:50:42.559Z,53.94
2023-05-22T20:53:09.778Z,54.53
2023-05-22T20:55:37.200Z,52.85
2023-05-22T20:58:04.341Z,53.67
2023-05-22T21:00:31.415Z,53.48
2023-05-22T21:02:59.691Z,54.30
2023-05-22T21:05:26.927Z,54.94
2023-05-22T21:07:55.715Z,54.72
2023-05-22T21:10:23.357Z,54.98
2023-05-22T21:12:50.696Z,55.03
2023-05-22T21:15:17.987Z,55.15
2023-05-22T21:17:45.628Z,54.82
2023-05-22T21:20:12.693Z,55.15
2023-05-22T21:22:39.739Z,55.87
2023-05-22T21:25:07.584Z,55.77
2023-05-22T21:27:34.637Z,54.10
2023-05-22T21:30:01.834Z,53.08
2023-05-22T21:32:31.007Z,52.95
2023-05-22T21:34:58.140Z,52.99
2023-05-22T21:37:25.727Z,53.28
2023-05-22T21:39:52.948Z,53.65
2023-05-22T21:42:21.344Z,54.16
2023-05-22T21:44:48.554Z,54.65
2023-05-22T21:47:15.610Z,55.11
2023-05-22T21:49:42.690Z,54.90
2023-05-22T21:52:09.953Z,54.43
2023-05-22T21:54:39.547Z,54.70
2023-05-22T21:57:07.069Z,53.66
2023-05-22T21:59:34.506Z,54.92
2023-05-22T22:02:01.724Z,55.37
2023-05-22T22:04:29.075Z,55.64
2023-05-22T22:06:56.220Z,55.65
2023-05-22T22:09:23.234Z,55.97
2023-05-22T22:11:50.805Z,56.04
2023-05-22T22:14:18.037Z,56.75
2023-05-22T22:16:45.605Z,56.10
2023-05-22T22:19:12.956Z,54.72
2023-05-22T22:21:40.126Z,53.95
2023-05-22T22:24:07.257Z,53.27
2023-05-22T22:26:35.717Z,53.39
2023-05-22T22:29:02.823Z,53.35
2023-05-22T22:31:30.071Z,54.19
2023-05-22T22:33:57.982Z,54.71
2023-05-22T22:36:25.097Z,55.12
2023-05-22T22:38:52.059Z,55.32
2023-05-22T22:41:19.182Z,55.36
2023-05-22T22:43:46.835Z,55.96
2023-05-22T22:46:14.175Z,55.61
2023-05-22T22:48:41.859Z,55.66
2023-05-22T22:51:09.890Z,55.95
2023-05-22T22:53:37.374Z,56.94
2023-05-22T22:56:04.561Z,56.47
2023-05-22T22:58:32.576Z,54.64
2023-05-22T23:00:59.776Z,54.11
2023-05-22T23:03:27.579Z,54.32
2023-05-22T23:05:54.647Z,54.15
2023-05-22T23:08:21.648Z,53.34
2023-05-22T23:10:48.727Z,54.14
2023-05-22T23:13:16.229Z,54.53
2023-05-22T23:15:43.689Z,55.32
2023-05-22T23:18:13.699Z,55.77
2023-05-22T23:20:40.960Z,56.12
2023-05-22T23:23:08.083Z,56.63
2023-05-22T23:25:35.172Z,56.86
2023-05-22T23:28:02.358Z,56.96
2023-05-22T23:30:30.175Z,57.64
2023-05-22T23:32:57.342Z,57.19
2023-05-22T23:35:24.520Z,55.10
2023-05-22T23:37:51.646Z,54.64
2023-05-22T23:40:18.866Z,52.95
2023-05-22T23:42:46.185Z,52.05
2023-05-22T23:45:13.377Z,54.50
2023-05-22T23:47:40.926Z,55.08
2023-05-22T23:50:11.224Z,55.50
2023-05-22T23:52:39.214Z,54.80
2023-05-22T23:55:07.075Z,55.89
2023-05-22T23:57:34.293Z,56.30
